Terminal Aerodrome Forecast
Issued by NWS Jackson, MS

Home | Current Version | Previous Version | Text Only | Print | Product List | Glossary On
Versions: 1 2 3 4 5 6 7 8 9 10 11 12 13 14 15 16 17
000
FTUS44 KJAN 252347 RRA
TAFJAN
TAF
KJAN 252347Z 2600/2624 10006KT 5SM SHRA SCT008 BKN030 OVC090
     FM260200 07006KT 3SM RA BR VCTS BKN008 OVC050CB
     FM260630 04007KT 6SM -RA BR OVC025
     FM261000 01005KT P6SM VCSH BKN015 OVC050
     FM261200 36006KT P6SM BKN008 BKN025
     FM261500 01006KT P6SM BKN015 BKN250
     FM261700 01005KT P6SM FEW130 SCT250=

USA.gov is the U.S. government's official web portal to all federal, state and local government web resources and services.